sensor_id;sensor_type;location;lat;lon;timestamp;P1;durP1;ratioP1;P2;durP2;ratioP2
19739;SDS011;10027;51.066;13.768;2023-04-25T00:01:02;2.03;;;1.80;;
19739;SDS011;10027;51.066;13.768;2023-04-25T00:03:31;2.77;;;1.97;;
19739;SDS011;10027;51.066;13.768;2023-04-25T00:05:59;5.53;;;2.20;;
19739;SDS011;10027;51.066;13.768;2023-04-25T00:08:30;2.10;;;1.77;;
19739;SDS011;10027;51.066;13.768;2023-04-25T00:10:58;2.57;;;2.10;;
19739;SDS011;10027;51.066;13.768;2023-04-25T00:13:25;3.13;;;1.93;;
19739;SDS011;10027;51.066;13.768;2023-04-25T00:15:52;3.60;;;2.20;;
19739;SDS011;10027;51.066;13.768;2023-04-25T00:18:20;3.00;;;2.17;;
19739;SDS011;10027;51.066;13.768;2023-04-25T00:20:47;4.00;;;2.17;;
19739;SDS011;10027;51.066;13.768;2023-04-25T00:23:15;2.40;;;2.20;;
19739;SDS011;10027;51.066;13.768;2023-04-25T00:25:44;3.37;;;2.20;;
19739;SDS011;10027;51.066;13.768;2023-04-25T00:28:11;3.17;;;2.60;;
19739;SDS011;10027;51.066;13.768;2023-04-25T00:30:39;2.87;;;2.03;;
19739;SDS011;10027;51.066;13.768;2023-04-25T00:33:06;5.10;;;2.10;;
19739;SDS011;10027;51.066;13.768;2023-04-25T00:35:33;3.73;;;2.17;;
19739;SDS011;10027;51.066;13.768;2023-04-25T00:38:00;2.53;;;2.33;;
19739;SDS011;10027;51.066;13.768;2023-04-25T00:40:28;3.67;;;2.57;;
19739;SDS011;10027;51.066;13.768;2023-04-25T00:42:55;4.43;;;2.50;;
19739;SDS011;10027;51.066;13.768;2023-04-25T00:45:22;3.07;;;2.30;;
19739;SDS011;10027;51.066;13.768;2023-04-25T00:47:52;2.93;;;2.40;;
19739;SDS011;10027;51.066;13.768;2023-04-25T00:50:19;2.90;;;2.37;;
19739;SDS011;10027;51.066;13.768;2023-04-25T00:52:46;3.87;;;2.37;;
19739;SDS011;10027;51.066;13.768;2023-04-25T00:55:14;2.53;;;2.33;;
19739;SDS011;10027;51.066;13.768;2023-04-25T00:57:42;3.57;;;2.50;;
19739;SDS011;10027;51.066;13.768;2023-04-25T01:00:09;3.33;;;2.40;;
19739;SDS011;10027;51.066;13.768;2023-04-25T01:02:37;2.80;;;2.37;;
19739;SDS011;10027;51.066;13.768;2023-04-25T01:05:04;3.60;;;2.50;;
19739;SDS011;10027;51.066;13.768;2023-04-25T01:07:32;3.43;;;2.60;;
19739;SDS011;10027;51.066;13.768;2023-04-25T01:09:59;4.17;;;2.77;;
19739;SDS011;10027;51.066;13.768;2023-04-25T01:12:26;4.03;;;2.70;;
19739;SDS011;10027;51.066;13.768;2023-04-25T01:14:53;3.97;;;2.83;;
19739;SDS011;10027;51.066;13.768;2023-04-25T01:17:20;4.40;;;2.80;;
19739;SDS011;10027;51.066;13.768;2023-04-25T01:19:47;5.10;;;2.80;;
19739;SDS011;10027;51.066;13.768;2023-04-25T01:22:15;7.93;;;2.70;;
19739;SDS011;10027;51.066;13.768;2023-04-25T01:24:43;3.50;;;2.70;;
19739;SDS011;10027;51.066;13.768;2023-04-25T01:27:10;3.30;;;2.77;;
19739;SDS011;10027;51.066;13.768;2023-04-25T01:29:37;4.27;;;2.70;;
19739;SDS011;10027;51.066;13.768;2023-04-25T01:32:05;3.63;;;2.97;;
19739;SDS011;10027;51.066;13.768;2023-04-25T01:34:32;4.20;;;2.97;;
19739;SDS011;10027;51.066;13.768;2023-04-25T01:37:00;4.37;;;3.00;;
19739;SDS011;10027;51.066;13.768;2023-04-25T01:39:27;3.60;;;2.80;;
19739;SDS011;10027;51.066;13.768;2023-04-25T01:41:55;4.03;;;2.80;;
19739;SDS011;10027;51.066;13.768;2023-04-25T01:44:22;4.63;;;3.13;;
19739;SDS011;10027;51.066;13.768;2023-04-25T01:46:49;3.70;;;3.03;;
19739;SDS011;10027;51.066;13.768;2023-04-25T01:49:17;3.53;;;2.80;;
19739;SDS011;10027;51.066;13.768;2023-04-25T01:51:44;3.00;;;2.60;;
19739;SDS011;10027;51.066;13.768;2023-04-25T01:54:11;5.20;;;3.03;;
19739;SDS011;10027;51.066;13.768;2023-04-25T01:56:39;4.13;;;2.73;;
19739;SDS011;10027;51.066;13.768;2023-04-25T01:59:06;3.33;;;2.90;;
19739;SDS011;10027;51.066;13.768;2023-04-25T02:01:33;4.00;;;3.00;;
19739;SDS011;10027;51.066;13.768;2023-04-25T02:04:00;4.57;;;2.80;;
19739;SDS011;10027;51.066;13.768;2023-04-25T02:06:28;4.37;;;3.30;;
19739;SDS011;10027;51.066;13.768;2023-04-25T02:08:56;3.20;;;2.90;;
19739;SDS011;10027;51.066;13.768;2023-04-25T02:11:23;3.60;;;2.70;;
19739;SDS011;10027;51.066;13.768;2023-04-25T02:13:51;3.73;;;2.70;;
19739;SDS011;10027;51.066;13.768;2023-04-25T02:16:18;4.97;;;2.97;;
19739;SDS011;10027;51.066;13.768;2023-04-25T02:18:45;4.57;;;3.10;;
19739;SDS011;10027;51.066;13.768;2023-04-25T02:21:13;4.40;;;2.97;;
19739;SDS011;10027;51.066;13.768;2023-04-25T02:23:40;3.93;;;3.03;;
19739;SDS011;10027;51.066;13.768;2023-04-25T02:26:07;5.23;;;2.90;;
19739;SDS011;10027;51.066;13.768;2023-04-25T02:28:34;4.90;;;2.90;;
19739;SDS011;10027;51.066;13.768;2023-04-25T02:31:01;4.93;;;3.20;;
19739;SDS011;10027;51.066;13.768;2023-04-25T02:33:28;5.40;;;3.00;;
19739;SDS011;10027;51.066;13.768;2023-04-25T02:35:55;4.47;;;3.10;;
19739;SDS011;10027;51.066;13.768;2023-04-25T02:38:22;4.30;;;3.40;;
19739;SDS011;10027;51.066;13.768;2023-04-25T02:40:49;4.13;;;3.13;;
19739;SDS011;10027;51.066;13.768;2023-04-25T02:43:17;4.63;;;2.83;;
19739;SDS011;10027;51.066;13.768;2023-04-25T02:45:44;5.03;;;3.00;;
19739;SDS011;10027;51.066;13.768;2023-04-25T02:48:11;4.47;;;3.03;;
19739;SDS011;10027;51.066;13.768;2023-04-25T02:50:38;3.63;;;2.90;;
19739;SDS011;10027;51.066;13.768;2023-04-25T02:53:05;4.67;;;3.17;;
19739;SDS011;10027;51.066;13.768;2023-04-25T02:55:32;5.13;;;3.30;;
19739;SDS011;10027;51.066;13.768;2023-04-25T02:57:59;6.80;;;2.93;;
19739;SDS011;10027;51.066;13.768;2023-04-25T03:00:26;3.93;;;2.93;;
19739;SDS011;10027;51.066;13.768;2023-04-25T03:02:53;5.30;;;3.37;;
19739;SDS011;10027;51.066;13.768;2023-04-25T03:05:21;4.40;;;2.70;;
19739;SDS011;10027;51.066;13.768;2023-04-25T03:07:48;5.17;;;3.00;;
19739;SDS011;10027;51.066;13.768;2023-04-25T03:10:16;4.27;;;2.97;;
19739;SDS011;10027;51.066;13.768;2023-04-25T03:12:43;5.93;;;3.00;;
19739;SDS011;10027;51.066;13.768;2023-04-25T03:15:10;4.93;;;3.40;;
19739;SDS011;10027;51.066;13.768;2023-04-25T03:17:37;4.23;;;3.30;;
19739;SDS011;10027;51.066;13.768;2023-04-25T03:20:04;4.10;;;3.07;;
19739;SDS011;10027;51.066;13.768;2023-04-25T03:22:34;4.57;;;3.33;;
19739;SDS011;10027;51.066;13.768;2023-04-25T03:25:01;6.10;;;3.20;;
19739;SDS011;10027;51.066;13.768;2023-04-25T03:27:28;5.00;;;3.20;;
19739;SDS011;10027;51.066;13.768;2023-04-25T03:29:55;4.27;;;3.03;;
19739;SDS011;10027;51.066;13.768;2023-04-25T03:32:22;5.60;;;3.40;;
19739;SDS011;10027;51.066;13.768;2023-04-25T03:34:50;4.00;;;3.10;;
19739;SDS011;10027;51.066;13.768;2023-04-25T03:37:17;4.20;;;2.90;;
19739;SDS011;10027;51.066;13.768;2023-04-25T03:39:44;5.10;;;3.13;;
19739;SDS011;10027;51.066;13.768;2023-04-25T03:42:11;6.60;;;3.23;;
19739;SDS011;10027;51.066;13.768;2023-04-25T03:44:38;5.50;;;3.50;;
19739;SDS011;10027;51.066;13.768;2023-04-25T03:47:06;4.47;;;3.30;;
19739;SDS011;10027;51.066;13.768;2023-04-25T03:49:33;3.50;;;3.00;;
19739;SDS011;10027;51.066;13.768;2023-04-25T03:52:02;5.00;;;3.20;;
19739;SDS011;10027;51.066;13.768;2023-04-25T03:54:29;4.47;;;3.30;;
19739;SDS011;10027;51.066;13.768;2023-04-25T03:56:56;6.67;;;3.53;;
19739;SDS011;10027;51.066;13.768;2023-04-25T03:59:23;5.10;;;3.30;;
19739;SDS011;10027;51.066;13.768;2023-04-25T04:01:52;5.17;;;3.73;;
19739;SDS011;10027;51.066;13.768;2023-04-25T04:04:19;5.30;;;3.50;;
19739;SDS011;10027;51.066;13.768;2023-04-25T04:06:46;6.73;;;3.40;;
19739;SDS011;10027;51.066;13.768;2023-04-25T04:09:13;5.03;;;3.40;;
19739;SDS011;10027;51.066;13.768;2023-04-25T04:11:41;6.10;;;3.40;;
19739;SDS011;10027;51.066;13.768;2023-04-25T04:14:08;4.87;;;3.20;;
19739;SDS011;10027;51.066;13.768;2023-04-25T04:16:36;5.90;;;3.60;;
19739;SDS011;10027;51.066;13.768;2023-04-25T04:19:03;4.87;;;3.40;;
19739;SDS011;10027;51.066;13.768;2023-04-25T04:21:30;6.17;;;4.00;;
19739;SDS011;10027;51.066;13.768;2023-04-25T04:23:58;5.77;;;3.30;;
19739;SDS011;10027;51.066;13.768;2023-04-25T04:26:26;5.10;;;3.43;;
19739;SDS011;10027;51.066;13.768;2023-04-25T04:28:53;5.53;;;3.63;;
19739;SDS011;10027;51.066;13.768;2023-04-25T04:31:21;5.83;;;3.90;;
19739;SDS011;10027;51.066;13.768;2023-04-25T04:33:48;7.90;;;3.87;;
19739;SDS011;10027;51.066;13.768;2023-04-25T04:36:16;5.40;;;3.97;;
19739;SDS011;10027;51.066;13.768;2023-04-25T04:38:47;4.97;;;3.60;;
19739;SDS011;10027;51.066;13.768;2023-04-25T04:41:14;6.60;;;4.23;;
19739;SDS011;10027;51.066;13.768;2023-04-25T04:43:42;6.60;;;3.80;;
19739;SDS011;10027;51.066;13.768;2023-04-25T04:46:09;6.03;;;4.10;;
19739;SDS011;10027;51.066;13.768;2023-04-25T04:48:36;5.47;;;3.97;;
19739;SDS011;10027;51.066;13.768;2023-04-25T04:51:06;8.03;;;4.00;;
19739;SDS011;10027;51.066;13.768;2023-04-25T04:53:33;7.07;;;3.77;;
19739;SDS011;10027;51.066;13.768;2023-04-25T04:56:00;5.23;;;3.70;;
19739;SDS011;10027;51.066;13.768;2023-04-25T04:58:27;5.47;;;3.70;;
19739;SDS011;10027;51.066;13.768;2023-04-25T05:00:56;6.13;;;3.53;;
19739;SDS011;10027;51.066;13.768;2023-04-25T05:03:23;7.77;;;4.40;;
19739;SDS011;10027;51.066;13.768;2023-04-25T05:05:50;4.67;;;3.60;;
19739;SDS011;10027;51.066;13.768;2023-04-25T05:08:17;4.73;;;3.63;;
19739;SDS011;10027;51.066;13.768;2023-04-25T05:10:44;4.00;;;3.60;;
19739;SDS011;10027;51.066;13.768;2023-04-25T05:13:11;6.80;;;3.93;;
19739;SDS011;10027;51.066;13.768;2023-04-25T05:15:39;5.70;;;3.80;;
19739;SDS011;10027;51.066;13.768;2023-04-25T05:18:06;6.07;;;3.53;;
19739;SDS011;10027;51.066;13.768;2023-04-25T05:20:33;7.67;;;4.50;;
19739;SDS011;10027;51.066;13.768;2023-04-25T05:23:00;5.13;;;4.00;;
19739;SDS011;10027;51.066;13.768;2023-04-25T05:25:27;6.03;;;3.73;;
19739;SDS011;10027;51.066;13.768;2023-04-25T05:27:54;6.57;;;3.83;;
19739;SDS011;10027;51.066;13.768;2023-04-25T05:30:22;11.77;;;4.23;;
19739;SDS011;10027;51.066;13.768;2023-04-25T05:32:49;6.27;;;3.70;;
19739;SDS011;10027;51.066;13.768;2023-04-25T05:35:17;6.07;;;3.73;;
19739;SDS011;10027;51.066;13.768;2023-04-25T05:37:44;5.63;;;3.60;;
19739;SDS011;10027;51.066;13.768;2023-04-25T05:40:11;4.87;;;3.70;;
19739;SDS011;10027;51.066;13.768;2023-04-25T05:42:38;4.97;;;3.57;;
19739;SDS011;10027;51.066;13.768;2023-04-25T05:45:05;7.27;;;3.53;;
19739;SDS011;10027;51.066;13.768;2023-04-25T05:47:33;4.00;;;3.47;;
19739;SDS011;10027;51.066;13.768;2023-04-25T05:50:00;4.63;;;3.40;;
19739;SDS011;10027;51.066;13.768;2023-04-25T05:52:27;8.37;;;3.80;;
19739;SDS011;10027;51.066;13.768;2023-04-25T05:54:54;5.53;;;3.27;;
19739;SDS011;10027;51.066;13.768;2023-04-25T05:57:24;6.67;;;3.67;;
19739;SDS011;10027;51.066;13.768;2023-04-25T05:59:52;8.70;;;3.67;;
19739;SDS011;10027;51.066;13.768;2023-04-25T06:02:19;5.60;;;3.50;;
19739;SDS011;10027;51.066;13.768;2023-04-25T06:04:49;5.18;;;3.70;;
19739;SDS011;10027;51.066;13.768;2023-04-25T06:07:17;4.77;;;3.60;;
19739;SDS011;10027;51.066;13.768;2023-04-25T06:09:44;4.47;;;3.30;;
19739;SDS011;10027;51.066;13.768;2023-04-25T06:12:11;5.40;;;3.53;;
19739;SDS011;10027;51.066;13.768;2023-04-25T06:14:38;4.37;;;3.20;;
19739;SDS011;10027;51.066;13.768;2023-04-25T06:17:06;5.40;;;3.40;;
19739;SDS011;10027;51.066;13.768;2023-04-25T06:19:35;4.50;;;3.30;;
19739;SDS011;10027;51.066;13.768;2023-04-25T06:22:02;5.60;;;3.40;;
19739;SDS011;10027;51.066;13.768;2023-04-25T06:24:29;5.67;;;3.53;;
19739;SDS011;10027;51.066;13.768;2023-04-25T06:26:56;4.13;;;3.70;;
19739;SDS011;10027;51.066;13.768;2023-04-25T06:29:23;4.93;;;3.13;;
19739;SDS011;10027;51.066;13.768;2023-04-25T06:31:51;4.97;;;3.70;;
19739;SDS011;10027;51.066;13.768;2023-04-25T06:34:18;5.20;;;3.13;;
19739;SDS011;10027;51.066;13.768;2023-04-25T06:36:45;4.13;;;3.10;;
19739;SDS011;10027;51.066;13.768;2023-04-25T06:39:12;5.23;;;3.30;;
19739;SDS011;10027;51.066;13.768;2023-04-25T06:41:40;3.97;;;2.83;;
19739;SDS011;10027;51.066;13.768;2023-04-25T06:44:07;4.90;;;3.30;;
19739;SDS011;10027;51.066;13.768;2023-04-25T06:46:34;5.30;;;3.50;;
19739;SDS011;10027;51.066;13.768;2023-04-25T06:49:02;3.88;;;3.38;;
19739;SDS011;10027;51.066;13.768;2023-04-25T06:51:29;4.97;;;3.40;;
19739;SDS011;10027;51.066;13.768;2023-04-25T06:53:57;4.97;;;3.28;;
19739;SDS011;10027;51.066;13.768;2023-04-25T06:56:24;3.45;;;2.90;;
19739;SDS011;10027;51.066;13.768;2023-04-25T06:58:51;4.40;;;3.00;;
19739;SDS011;10027;51.066;13.768;2023-04-25T07:01:18;3.30;;;3.00;;
19739;SDS011;10027;51.066;13.768;2023-04-25T07:03:46;4.45;;;3.10;;
19739;SDS011;10027;51.066;13.768;2023-04-25T07:06:13;6.53;;;2.92;;
19739;SDS011;10027;51.066;13.768;2023-04-25T07:08:40;3.10;;;2.60;;
19739;SDS011;10027;51.066;13.768;2023-04-25T07:11:07;3.30;;;2.63;;
19739;SDS011;10027;51.066;13.768;2023-04-25T07:13:34;3.80;;;2.65;;
19739;SDS011;10027;51.066;13.768;2023-04-25T07:16:02;2.80;;;2.50;;
19739;SDS011;10027;51.066;13.768;2023-04-25T07:18:29;5.07;;;2.47;;
19739;SDS011;10027;51.066;13.768;2023-04-25T07:20:57;4.57;;;2.90;;
19739;SDS011;10027;51.066;13.768;2023-04-25T07:23:24;4.23;;;2.90;;
19739;SDS011;10027;51.066;13.768;2023-04-25T07:25:51;2.60;;;2.40;;
19739;SDS011;10027;51.066;13.768;2023-04-25T07:28:18;4.10;;;2.57;;
19739;SDS011;10027;51.066;13.768;2023-04-25T07:30:45;2.77;;;2.23;;
19739;SDS011;10027;51.066;13.768;2023-04-25T07:33:12;4.30;;;2.43;;
19739;SDS011;10027;51.066;13.768;2023-04-25T07:35:40;3.67;;;2.30;;
19739;SDS011;10027;51.066;13.768;2023-04-25T07:38:07;3.67;;;2.70;;
19739;SDS011;10027;51.066;13.768;2023-04-25T07:40:34;5.57;;;3.50;;
19739;SDS011;10027;51.066;13.768;2023-04-25T07:43:01;5.17;;;3.83;;
19739;SDS011;10027;51.066;13.768;2023-04-25T07:45:28;2.90;;;2.63;;
19739;SDS011;10027;51.066;13.768;2023-04-25T07:47:56;6.13;;;3.23;;
19739;SDS011;10027;51.066;13.768;2023-04-25T07:50:23;5.07;;;3.27;;
19739;SDS011;10027;51.066;13.768;2023-04-25T07:52:50;3.87;;;2.53;;
19739;SDS011;10027;51.066;13.768;2023-04-25T07:55:17;4.53;;;2.20;;
19739;SDS011;10027;51.066;13.768;2023-04-25T07:57:44;4.13;;;2.60;;
19739;SDS011;10027;51.066;13.768;2023-04-25T08:00:12;3.53;;;2.10;;
19739;SDS011;10027;51.066;13.768;2023-04-25T08:02:39;5.20;;;2.50;;
19739;SDS011;10027;51.066;13.768;2023-04-25T08:05:06;3.10;;;2.33;;
19739;SDS011;10027;51.066;13.768;2023-04-25T08:07:38;2.93;;;1.80;;
19739;SDS011;10027;51.066;13.768;2023-04-25T08:10:05;3.37;;;2.10;;
19739;SDS011;10027;51.066;13.768;2023-04-25T08:12:33;5.10;;;3.23;;
19739;SDS011;10027;51.066;13.768;2023-04-25T08:15:00;8.57;;;2.43;;
19739;SDS011;10027;51.066;13.768;2023-04-25T08:17:27;3.67;;;2.00;;
19739;SDS011;10027;51.066;13.768;2023-04-25T08:19:54;4.13;;;2.30;;
19739;SDS011;10027;51.066;13.768;2023-04-25T08:22:23;4.23;;;2.23;;
19739;SDS011;10027;51.066;13.768;2023-04-25T08:24:50;3.70;;;2.60;;
19739;SDS011;10027;51.066;13.768;2023-04-25T08:27:20;4.60;;;2.40;;
19739;SDS011;10027;51.066;13.768;2023-04-25T08:29:47;3.37;;;2.23;;
19739;SDS011;10027;51.066;13.768;2023-04-25T08:32:14;3.33;;;2.00;;
19739;SDS011;10027;51.066;13.768;2023-04-25T08:34:41;2.43;;;2.23;;
19739;SDS011;10027;51.066;13.768;2023-04-25T08:37:09;2.13;;;1.80;;
19739;SDS011;10027;51.066;13.768;2023-04-25T08:39:37;3.23;;;2.20;;
19739;SDS011;10027;51.066;13.768;2023-04-25T08:42:05;2.23;;;1.90;;
19739;SDS011;10027;51.066;13.768;2023-04-25T08:44:35;3.33;;;2.30;;
19739;SDS011;10027;51.066;13.768;2023-04-25T08:47:03;3.20;;;2.23;;
19739;SDS011;10027;51.066;13.768;2023-04-25T08:49:34;3.70;;;2.30;;
19739;SDS011;10027;51.066;13.768;2023-04-25T08:52:02;4.07;;;2.63;;
19739;SDS011;10027;51.066;13.768;2023-04-25T08:54:32;3.07;;;2.30;;
19739;SDS011;10027;51.066;13.768;2023-04-25T08:57:03;3.43;;;2.77;;
19739;SDS011;10027;51.066;13.768;2023-04-25T08:59:31;4.00;;;2.83;;
19739;SDS011;10027;51.066;13.768;2023-04-25T09:01:58;3.93;;;2.40;;
19739;SDS011;10027;51.066;13.768;2023-04-25T09:04:26;3.17;;;2.57;;
19739;SDS011;10027;51.066;13.768;2023-04-25T09:06:53;5.03;;;2.70;;
19739;SDS011;10027;51.066;13.768;2023-04-25T09:09:20;3.90;;;2.70;;
19739;SDS011;10027;51.066;13.768;2023-04-25T09:11:47;4.43;;;2.70;;
19739;SDS011;10027;51.066;13.768;2023-04-25T09:14:21;5.17;;;2.90;;
19739;SDS011;10027;51.066;13.768;2023-04-25T09:19:25;3.63;;;2.70;;
19739;SDS011;10027;51.066;13.768;2023-04-25T09:22:07;4.67;;;3.07;;
19739;SDS011;10027;51.066;13.768;2023-04-25T09:24:41;4.00;;;3.30;;
19739;SDS011;10027;51.066;13.768;2023-04-25T09:27:11;6.97;;;3.47;;
19739;SDS011;10027;51.066;13.768;2023-04-25T09:29:39;4.33;;;3.23;;
19739;SDS011;10027;51.066;13.768;2023-04-25T09:32:10;3.83;;;2.90;;
19739;SDS011;10027;51.066;13.768;2023-04-25T09:34:39;6.27;;;3.40;;
19739;SDS011;10027;51.066;13.768;2023-04-25T09:37:11;5.67;;;3.30;;
19739;SDS011;10027;51.066;13.768;2023-04-25T09:39:38;5.50;;;3.33;;
19739;SDS011;10027;51.066;13.768;2023-04-25T09:42:06;4.93;;;3.60;;
19739;SDS011;10027;51.066;13.768;2023-04-25T09:44:33;5.97;;;3.37;;
19739;SDS011;10027;51.066;13.768;2023-04-25T09:47:00;7.33;;;3.37;;
19739;SDS011;10027;51.066;13.768;2023-04-25T09:49:28;4.13;;;3.40;;
19739;SDS011;10027;51.066;13.768;2023-04-25T09:51:56;3.73;;;3.10;;
19739;SDS011;10027;51.066;13.768;2023-04-25T09:54:24;4.97;;;3.30;;
19739;SDS011;10027;51.066;13.768;2023-04-25T09:56:52;6.07;;;3.40;;
19739;SDS011;10027;51.066;13.768;2023-04-25T09:59:20;6.37;;;3.43;;
19739;SDS011;10027;51.066;13.768;2023-04-25T10:01:50;5.27;;;3.50;;
19739;SDS011;10027;51.066;13.768;2023-04-25T10:04:22;4.53;;;3.60;;
19739;SDS011;10027;51.066;13.768;2023-04-25T10:06:49;6.80;;;4.10;;
19739;SDS011;10027;51.066;13.768;2023-04-25T10:09:19;6.30;;;4.03;;
19739;SDS011;10027;51.066;13.768;2023-04-25T10:11:47;3.93;;;3.00;;
19739;SDS011;10027;51.066;13.768;2023-04-25T10:14:14;4.23;;;3.00;;
19739;SDS011;10027;51.066;13.768;2023-04-25T10:16:41;5.13;;;2.80;;
19739;SDS011;10027;51.066;13.768;2023-04-25T10:19:09;3.53;;;2.33;;
19739;SDS011;10027;51.066;13.768;2023-04-25T10:21:40;5.83;;;2.77;;
19739;SDS011;10027;51.066;13.768;2023-04-25T10:24:11;3.43;;;2.70;;
19739;SDS011;10027;51.066;13.768;2023-04-25T10:26:39;3.17;;;2.60;;
19739;SDS011;10027;51.066;13.768;2023-04-25T10:29:06;3.40;;;2.83;;
19739;SDS011;10027;51.066;13.768;2023-04-25T10:31:34;3.33;;;2.60;;
19739;SDS011;10027;51.066;13.768;2023-04-25T10:34:11;4.20;;;2.90;;
19739;SDS011;10027;51.066;13.768;2023-04-25T10:36:38;3.30;;;2.80;;
19739;SDS011;10027;51.066;13.768;2023-04-25T10:39:06;4.70;;;3.03;;
19739;SDS011;10027;51.066;13.768;2023-04-25T10:41:47;5.90;;;3.10;;
19739;SDS011;10027;51.066;13.768;2023-04-25T10:44:14;3.80;;;2.80;;
19739;SDS011;10027;51.066;13.768;2023-04-25T10:46:42;3.00;;;2.70;;
19739;SDS011;10027;51.066;13.768;2023-04-25T10:49:11;4.30;;;3.20;;
19739;SDS011;10027;51.066;13.768;2023-04-25T10:52:10;5.10;;;3.27;;
19739;SDS011;10027;51.066;13.768;2023-04-25T10:54:47;4.27;;;3.50;;
19739;SDS011;10027;51.066;13.768;2023-04-25T11:00:18;5.80;;;3.10;;
19739;SDS011;10027;51.066;13.768;2023-04-25T11:02:48;5.10;;;3.03;;
19739;SDS011;10027;51.066;13.768;2023-04-25T11:05:20;5.57;;;3.37;;
19739;SDS011;10027;51.066;13.768;2023-04-25T11:07:54;6.03;;;3.70;;
19739;SDS011;10027;51.066;13.768;2023-04-25T11:10:30;6.87;;;3.83;;
19739;SDS011;10027;51.066;13.768;2023-04-25T11:12:57;6.90;;;4.20;;
19739;SDS011;10027;51.066;13.768;2023-04-25T11:15:26;6.00;;;3.50;;
19739;SDS011;10027;51.066;13.768;2023-04-25T11:17:53;5.87;;;3.50;;
19739;SDS011;10027;51.066;13.768;2023-04-25T11:20:21;5.17;;;3.80;;
19739;SDS011;10027;51.066;13.768;2023-04-25T11:22:49;4.40;;;3.17;;
19739;SDS011;10027;51.066;13.768;2023-04-25T11:25:18;5.13;;;2.90;;
19739;SDS011;10027;51.066;13.768;2023-04-25T11:27:55;3.63;;;2.93;;
19739;SDS011;10027;51.066;13.768;2023-04-25T11:30:23;4.03;;;2.70;;
19739;SDS011;10027;51.066;13.768;2023-04-25T11:32:51;4.50;;;2.70;;
19739;SDS011;10027;51.066;13.768;2023-04-25T11:35:19;6.60;;;2.60;;
19739;SDS011;10027;51.066;13.768;2023-04-25T11:37:48;5.90;;;2.70;;
19739;SDS011;10027;51.066;13.768;2023-04-25T11:40:16;5.20;;;2.33;;
19739;SDS011;10027;51.066;13.768;2023-04-25T11:42:44;2.27;;;1.30;;
19739;SDS011;10027;51.066;13.768;2023-04-25T11:45:11;2.50;;;1.37;;
19739;SDS011;10027;51.066;13.768;2023-04-25T11:47:39;2.47;;;1.10;;
19739;SDS011;10027;51.066;13.768;2023-04-25T11:50:07;2.50;;;1.07;;
19739;SDS011;10027;51.066;13.768;2023-04-25T11:52:45;4.20;;;1.10;;
19739;SDS011;10027;51.066;13.768;2023-04-25T11:55:21;2.73;;;1.20;;
19739;SDS011;10027;51.066;13.768;2023-04-25T11:57:49;2.50;;;1.30;;
19739;SDS011;10027;51.066;13.768;2023-04-25T12:00:17;1.50;;;1.30;;
19739;SDS011;10027;51.066;13.768;2023-04-25T12:02:46;2.93;;;1.40;;
19739;SDS011;10027;51.066;13.768;2023-04-25T12:05:14;2.23;;;1.40;;
19739;SDS011;10027;51.066;13.768;2023-04-25T12:07:57;1.93;;;1.37;;
19739;SDS011;10027;51.066;13.768;2023-04-25T12:10:24;2.80;;;1.70;;
19739;SDS011;10027;51.066;13.768;2023-04-25T12:12:52;3.70;;;1.63;;
19739;SDS011;10027;51.066;13.768;2023-04-25T12:15:26;3.23;;;1.73;;
19739;SDS011;10027;51.066;13.768;2023-04-25T12:17:53;2.90;;;1.90;;
19739;SDS011;10027;51.066;13.768;2023-04-25T12:20:23;6.10;;;2.00;;
19739;SDS011;10027;51.066;13.768;2023-04-25T12:22:51;5.73;;;2.17;;
19739;SDS011;10027;51.066;13.768;2023-04-25T12:28:24;7.17;;;2.13;;
19739;SDS011;10027;51.066;13.768;2023-04-25T12:33:21;7.27;;;2.50;;
19739;SDS011;10027;51.066;13.768;2023-04-25T12:35:48;8.17;;;2.20;;
19739;SDS011;10027;51.066;13.768;2023-04-25T12:38:26;4.40;;;2.20;;
19739;SDS011;10027;51.066;13.768;2023-04-25T12:40:53;4.10;;;2.00;;
19739;SDS011;10027;51.066;13.768;2023-04-25T12:43:21;3.90;;;2.37;;
19739;SDS011;10027;51.066;13.768;2023-04-25T12:45:48;9.07;;;2.47;;
19739;SDS011;10027;51.066;13.768;2023-04-25T12:48:19;3.87;;;2.30;;
19739;SDS011;10027;51.066;13.768;2023-04-25T12:50:46;5.17;;;2.30;;
19739;SDS011;10027;51.066;13.768;2023-04-25T12:53:18;4.90;;;2.40;;
19739;SDS011;10027;51.066;13.768;2023-04-25T12:55:45;7.17;;;2.73;;
19739;SDS011;10027;51.066;13.768;2023-04-25T12:58:16;5.37;;;2.57;;
19739;SDS011;10027;51.066;13.768;2023-04-25T13:00:44;6.00;;;2.90;;
19739;SDS011;10027;51.066;13.768;2023-04-25T13:03:11;5.47;;;2.70;;
19739;SDS011;10027;51.066;13.768;2023-04-25T13:05:39;5.00;;;2.67;;
19739;SDS011;10027;51.066;13.768;2023-04-25T13:08:07;7.03;;;2.77;;
19739;SDS011;10027;51.066;13.768;2023-04-25T13:10:34;5.73;;;2.70;;
19739;SDS011;10027;51.066;13.768;2023-04-25T13:13:02;4.87;;;2.57;;
19739;SDS011;10027;51.066;13.768;2023-04-25T13:15:29;8.43;;;2.87;;
19739;SDS011;10027;51.066;13.768;2023-04-25T13:17:56;6.43;;;2.80;;
19739;SDS011;10027;51.066;13.768;2023-04-25T13:20:24;6.90;;;3.07;;
19739;SDS011;10027;51.066;13.768;2023-04-25T13:22:51;7.83;;;2.83;;
19739;SDS011;10027;51.066;13.768;2023-04-25T13:25:18;6.30;;;3.00;;
19739;SDS011;10027;51.066;13.768;2023-04-25T13:27:45;7.93;;;2.90;;
19739;SDS011;10027;51.066;13.768;2023-04-25T13:30:12;10.07;;;3.10;;
19739;SDS011;10027;51.066;13.768;2023-04-25T13:32:39;7.50;;;3.07;;
19739;SDS011;10027;51.066;13.768;2023-04-25T13:35:08;5.47;;;3.37;;
19739;SDS011;10027;51.066;13.768;2023-04-25T13:37:36;7.33;;;2.83;;
19739;SDS011;10027;51.066;13.768;2023-04-25T13:40:05;6.80;;;3.07;;
19739;SDS011;10027;51.066;13.768;2023-04-25T13:42:36;5.00;;;2.30;;
19739;SDS011;10027;51.066;13.768;2023-04-25T13:45:04;8.17;;;2.87;;
19739;SDS011;10027;51.066;13.768;2023-04-25T13:47:31;9.20;;;3.27;;
19739;SDS011;10027;51.066;13.768;2023-04-25T13:49:58;5.93;;;2.47;;
19739;SDS011;10027;51.066;13.768;2023-04-25T13:52:26;6.00;;;2.40;;
19739;SDS011;10027;51.066;13.768;2023-04-25T13:54:53;6.07;;;2.87;;
19739;SDS011;10027;51.066;13.768;2023-04-25T13:57:20;8.63;;;2.80;;
19739;SDS011;10027;51.066;13.768;2023-04-25T13:59:47;7.37;;;2.80;;
19739;SDS011;10027;51.066;13.768;2023-04-25T14:02:14;8.87;;;2.80;;
19739;SDS011;10027;51.066;13.768;2023-04-25T14:04:42;7.00;;;3.13;;
19739;SDS011;10027;51.066;13.768;2023-04-25T14:07:09;9.07;;;2.90;;
19739;SDS011;10027;51.066;13.768;2023-04-25T14:09:37;9.23;;;2.60;;
19739;SDS011;10027;51.066;13.768;2023-04-25T14:12:04;7.47;;;2.87;;
19739;SDS011;10027;51.066;13.768;2023-04-25T14:14:32;8.17;;;2.97;;
19739;SDS011;10027;51.066;13.768;2023-04-25T14:16:59;7.37;;;3.00;;
19739;SDS011;10027;51.066;13.768;2023-04-25T14:19:26;6.90;;;3.00;;
19739;SDS011;10027;51.066;13.768;2023-04-25T14:21:55;7.00;;;2.70;;
19739;SDS011;10027;51.066;13.768;2023-04-25T14:24:22;6.40;;;3.33;;
19739;SDS011;10027;51.066;13.768;2023-04-25T14:26:49;7.60;;;2.93;;
19739;SDS011;10027;51.066;13.768;2023-04-25T14:29:16;6.53;;;2.90;;
19739;SDS011;10027;51.066;13.768;2023-04-25T14:31:43;7.43;;;2.80;;
19739;SDS011;10027;51.066;13.768;2023-04-25T14:34:11;5.57;;;2.80;;
19739;SDS011;10027;51.066;13.768;2023-04-25T14:36:38;8.90;;;3.00;;
19739;SDS011;10027;51.066;13.768;2023-04-25T14:39:05;6.50;;;2.97;;
19739;SDS011;10027;51.066;13.768;2023-04-25T14:41:33;9.07;;;2.60;;
19739;SDS011;10027;51.066;13.768;2023-04-25T14:44:00;6.03;;;2.80;;
19739;SDS011;10027;51.066;13.768;2023-04-25T14:46:27;5.37;;;2.87;;
19739;SDS011;10027;51.066;13.768;2023-04-25T14:48:54;7.37;;;3.20;;